Time;durP1;ratioP1;P1;durP2;ratioP2;P2;SDS_P1;SDS_P2;PMS_P1;PMS_P2;Temp;Humidity;BMP_temperature;BMP_pressure;BME280_temperature;BME280_humidity;BME280_pressure;Samples;Min_cycle;Max_cycle;Signal;HPM_P1;HPM_P2
2022/09/08 00:00:32;;;;;;;3.13;2.20;;;;;;;8.48;83.51;98871.56;4897837;29;20083;-63
2022/09/08 00:03:01;;;;;;;2.00;1.80;;;;;;;8.45;83.29;98875.47;4898058;29;20490;-63
2022/09/08 00:05:28;;;;;;;2.38;1.90;;;;;;;8.38;82.83;98872.97;4897065;29;20071;-65
2022/09/08 00:07:55;;;;;;;2.92;2.00;;;;;;;8.38;82.95;98875.63;4897840;29;20144;-64
2022/09/08 00:10:21;;;;;;;2.17;1.98;;;;;;;8.37;82.97;98878.47;4897920;29;20068;-64
2022/09/08 00:12:47;;;;;;;2.10;1.90;;;;;;;8.42;82.77;98878.59;4881590;29;20048;-64
2022/09/08 00:15:13;;;;;;;2.22;1.90;;;;;;;8.44;82.86;98881.78;4897016;29;20048;-64
2022/09/08 00:17:39;;;;;;;2.70;1.80;;;;;;;8.40;82.50;98878.00;4896748;29;20045;-64
2022/09/08 00:20:06;;;;;;;3.17;1.70;;;;;;;8.42;82.59;98889.16;4897063;29;20454;-63
2022/09/08 00:22:32;;;;;;;1.70;1.60;;;;;;;8.35;82.39;98883.16;4898384;29;20411;-64
2022/09/08 00:24:58;;;;;;;2.22;1.75;;;;;;;8.34;81.73;98885.00;4898236;29;20040;-64
2022/09/08 00:27:23;;;;;;;1.92;1.70;;;;;;;8.28;82.11;98878.03;4898169;29;20056;-64
2022/09/08 00:29:49;;;;;;;2.75;1.75;;;;;;;8.31;82.22;98885.47;4896895;29;20040;-64
2022/09/08 00:32:15;;;;;;;2.05;1.80;;;;;;;8.28;81.99;98883.31;4898142;29;20049;-64
2022/09/08 00:34:40;;;;;;;1.90;1.80;;;;;;;8.26;82.45;98890.66;4896831;29;20414;-64
2022/09/08 00:37:06;;;;;;;2.55;1.83;;;;;;;8.26;82.35;98888.00;4897172;29;20402;-64
2022/09/08 00:39:31;;;;;;;4.57;2.25;;;;;;;8.25;82.08;98891.69;4897850;29;20045;-64
2022/09/08 00:41:57;;;;;;;2.08;1.85;;;;;;;8.18;82.44;98897.13;4897880;29;20044;-64
2022/09/08 00:44:40;;;;;;;3.15;2.67;;;;;;;8.20;82.46;98894.22;4897695;29;20065;-65
2022/09/08 00:47:30;;;;;;;2.80;2.22;;;;;;;8.16;82.52;98896.53;4896166;29;20049;-64
2022/09/08 00:49:58;;;;;;;4.45;2.85;;;;;;;8.16;82.37;98898.38;4896300;29;20269;-64
2022/09/08 00:52:25;;;;;;;2.72;2.42;;;;;;;8.24;82.02;98900.66;4897313;29;20048;-64
2022/09/08 00:54:51;;;;;;;3.08;2.63;;;;;;;8.26;82.07;98895.94;4896446;29;20052;-64
2022/09/08 00:57:17;;;;;;;2.78;2.42;;;;;;;8.23;82.20;98891.13;4896056;29;20053;-65
2022/09/08 00:59:45;;;;;;;5.07;3.05;;;;;;;8.21;81.94;98895.84;4897555;29;20557;-64
2022/09/08 01:02:26;;;;;;;3.30;2.63;;;;;;;8.22;82.75;98894.00;4896196;29;20048;-64
2022/09/08 01:05:04;;;;;;;4.00;2.70;;;;;;;8.22;82.88;98892.16;4896647;29;20045;-65
2022/09/08 01:13:35;;;;;;;4.78;3.30;;;;;;;8.26;81.89;98911.78;4897403;29;20077;-65
2022/09/08 01:16:01;;;;;;;4.20;2.95;;;;;;;8.24;82.69;98905.16;4895840;29;20502;-64
2022/09/08 01:18:27;;;;;;;4.57;3.60;;;;;;;8.20;82.77;98910.88;4896530;29;20550;-65
2022/09/08 01:21:02;;;;;;;4.40;3.30;;;;;;;8.20;82.54;98899.50;4895534;29;20052;-65
2022/09/08 01:24:05;;;;;;;7.45;3.63;;;;;;;8.20;82.37;98905.59;4895740;29;20068;-63
2022/09/08 01:27:08;;;;;;;6.65;3.67;;;;;;;8.17;82.76;98911.34;4896694;29;20097;-61
2022/09/08 01:29:34;;;;;;;5.10;3.60;;;;;;;8.18;82.70;98906.88;4896771;29;20064;-61
2022/09/08 01:32:00;;;;;;;5.57;3.80;;;;;;;8.20;82.37;98910.88;4864554;29;20083;-61
2022/09/08 01:34:26;;;;;;;5.43;4.07;;;;;;;8.18;81.86;98909.53;4895578;29;20570;-63
2022/09/08 01:36:51;;;;;;;5.93;3.83;;;;;;;8.15;82.29;98912.63;4896663;29;20048;-63
2022/09/08 01:39:19;;;;;;;6.22;4.00;;;;;;;8.19;81.83;98914.56;4864293;29;20540;-62
2022/09/08 01:41:45;;;;;;;6.22;4.20;;;;;;;8.15;82.41;98916.06;4878148;29;20041;-64
2022/09/08 01:44:10;;;;;;;7.00;4.40;;;;;;;8.14;82.30;98917.09;4877706;29;20527;-63
2022/09/08 01:46:36;;;;;;;6.05;4.10;;;;;;;8.15;82.00;98918.72;4870429;29;20053;-61
2022/09/08 01:49:02;;;;;;;6.53;4.18;;;;;;;8.08;82.53;98911.94;4845778;29;20040;-63
2022/09/08 01:51:28;;;;;;;5.68;4.38;;;;;;;8.12;82.60;98919.16;4878078;29;20056;-62
2022/09/08 01:53:53;;;;;;;7.78;4.70;;;;;;;8.10;82.34;98920.44;4877762;29;20533;-63
2022/09/08 01:56:19;;;;;;;8.38;4.75;;;;;;;8.09;82.34;98914.34;4878597;29;20056;-60
2022/09/08 01:58:45;;;;;;;4.85;4.15;;;;;;;8.09;82.27;98918.81;4896301;29;20048;-63
2022/09/08 02:01:11;;;;;;;5.85;4.03;;;;;;;8.08;81.83;98925.13;4894956;29;20083;-63
2022/09/08 02:03:36;;;;;;;7.15;4.65;;;;;;;8.08;82.64;98917.22;4895008;29;20037;-63
2022/09/08 02:06:02;;;;;;;6.63;4.25;;;;;;;8.13;81.78;98915.50;4894688;29;20127;-63
2022/09/08 02:08:29;;;;;;;6.00;4.43;;;;;;;8.08;82.64;98915.38;4896263;29;20131;-63
2022/09/08 02:10:58;;;;;;;6.03;4.68;;;;;;;8.12;82.00;98923.66;4896223;29;20135;-62
2022/09/08 02:13:24;;;;;;;6.38;4.15;;;;;;;8.14;81.94;98916.28;4896087;29;20087;-64
2022/09/08 02:15:50;;;;;;;6.20;4.22;;;;;;;8.14;81.51;98927.63;4896389;29;20076;-63
2022/09/08 02:18:16;;;;;;;6.97;4.28;;;;;;;8.10;82.24;98925.72;4895321;29;20040;-62
2022/09/08 02:20:41;;;;;;;6.18;4.53;;;;;;;8.02;82.11;98921.59;4894971;29;20044;-61
2022/09/08 02:23:07;;;;;;;6.40;4.55;;;;;;;8.05;82.33;98931.69;4894743;29;20462;-61
2022/09/08 02:25:33;;;;;;;7.32;4.43;;;;;;;8.00;82.31;98939.50;4894853;29;20055;-61
2022/09/08 02:27:59;;;;;;;5.13;4.18;;;;;;;8.03;82.89;98932.94;4894734;29;20166;-62
2022/09/08 02:30:24;;;;;;;6.68;5.07;;;;;;;8.04;82.66;98935.38;4895992;29;20072;-62
2022/09/08 02:32:51;;;;;;;9.60;5.38;;;;;;;7.93;83.26;98936.16;4894960;29;20136;-61
2022/09/08 02:35:17;;;;;;;6.20;4.65;;;;;;;7.97;82.99;98938.13;4894819;29;20049;-60
2022/09/08 02:37:43;;;;;;;6.43;4.57;;;;;;;7.94;82.81;98938.59;4895713;29;20062;-63
2022/09/08 02:40:09;;;;;;;7.90;5.07;;;;;;;7.95;83.11;98944.66;4894627;29;20052;-63
2022/09/08 02:42:36;;;;;;;6.82;4.85;;;;;;;8.00;82.74;98941.31;4894276;29;20077;-62
2022/09/08 02:45:02;;;;;;;6.50;4.82;;;;;;;8.04;82.72;98945.13;4895768;29;20116;-62
2022/09/08 02:47:33;;;;;;;6.28;4.60;;;;;;;8.01;82.92;98940.31;4895384;29;20059;-62
2022/09/08 02:49:59;;;;;;;7.28;4.97;;;;;;;7.89;83.82;98935.84;4895738;29;20135;-61
2022/09/08 02:52:24;;;;;;;7.25;4.53;;;;;;;7.92;83.04;98945.13;4894732;29;20479;-61
2022/09/08 02:54:50;;;;;;;7.88;4.75;;;;;;;8.00;82.89;98949.25;4896096;29;20048;-62
2022/09/08 02:57:15;;;;;;;7.03;4.82;;;;;;;8.03;82.60;98952.25;4894144;29;20056;-60
2022/09/08 02:59:41;;;;;;;6.45;5.03;;;;;;;8.06;82.93;98958.88;4894629;29;20135;-64
2022/09/08 03:02:07;;;;;;;7.40;4.65;;;;;;;8.07;83.08;98947.31;4895819;29;20045;-64
2022/09/08 03:04:32;;;;;;;5.93;4.70;;;;;;;8.08;83.15;98952.34;4896022;29;20139;-63
2022/09/08 03:06:58;;;;;;;8.07;5.32;;;;;;;8.02;83.02;98955.09;4896072;29;20056;-64
2022/09/08 03:09:24;;;;;;;8.02;5.88;;;;;;;8.07;82.99;98961.28;4894756;29;20052;-64
2022/09/08 03:11:50;;;;;;;6.78;4.80;;;;;;;8.14;82.79;98964.59;4894736;29;20101;-65
2022/09/08 03:14:15;;;;;;;7.97;4.95;;;;;;;8.10;83.19;98965.31;4879130;29;20422;-65
2022/09/08 03:16:41;;;;;;;6.38;4.65;;;;;;;8.01;83.66;98964.88;4893866;29;20396;-61
2022/09/08 03:19:07;;;;;;;6.22;4.38;;;;;;;8.00;82.91;98967.72;4895641;29;20123;-63
2022/09/08 03:21:33;;;;;;;7.22;4.43;;;;;;;7.99;83.19;98966.13;4896050;29;20056;-61
2022/09/08 03:23:58;;;;;;;5.95;4.28;;;;;;;8.02;83.21;98963.03;4879276;29;20080;-64
2022/09/08 03:26:24;;;;;;;6.32;4.30;;;;;;;7.93;82.78;98965.19;4895088;29;20075;-65
2022/09/08 03:28:50;;;;;;;7.35;4.72;;;;;;;8.01;82.63;98970.13;4897762;29;20037;-61
2022/09/08 03:31:18;;;;;;;7.10;4.88;;;;;;;8.06;83.35;98972.91;4899330;29;20045;-61
2022/09/08 03:33:43;;;;;;;6.50;4.43;;;;;;;8.15;83.12;98973.34;4898959;29;20085;-62
2022/09/08 03:36:11;;;;;;;6.22;4.15;;;;;;;8.16;82.49;98975.75;4899232;29;20434;-62
2022/09/08 03:38:37;;;;;;;6.28;4.80;;;;;;;8.23;82.53;98988.81;4899175;29;20036;-62
2022/09/08 03:41:07;;;;;;;6.57;4.65;;;;;;;8.21;82.21;98977.69;4898828;29;20629;-62
2022/09/08 03:43:33;;;;;;;9.25;4.40;;;;;;;8.19;81.90;98988.47;4898487;29;20072;-63
2022/09/08 03:45:59;;;;;;;7.50;4.63;;;;;;;8.16;82.11;98990.78;4898764;29;21989;-61
2022/09/08 03:48:25;;;;;;;8.43;5.07;;;;;;;8.12;82.27;98989.66;4898437;29;20492;-62
2022/09/08 03:50:51;;;;;;;6.00;4.75;;;;;;;8.14;82.48;98998.13;4898742;29;20127;-61
2022/09/08 03:53:16;;;;;;;6.22;4.38;;;;;;;8.19;82.35;99000.88;4897390;29;20044;-63
2022/09/08 03:55:42;;;;;;;7.07;4.40;;;;;;;8.27;81.90;99002.38;4897975;29;20048;-61
2022/09/08 03:58:10;;;;;;;5.68;4.10;;;;;;;8.24;81.48;99010.75;4889927;29;20044;-62
2022/09/08 04:00:38;;;;;;;7.05;4.60;;;;;;;8.20;82.08;99007.75;4888883;29;20045;-61
2022/09/08 04:03:04;;;;;;;6.28;4.15;;;;;;;8.18;80.53;99008.00;4889461;29;20574;-62
2022/09/08 04:05:31;;;;;;;4.97;3.97;;;;;;;8.10;81.22;99004.91;4887155;29;20040;-62
2022/09/08 04:07:56;;;;;;;7.90;4.85;;;;;;;8.18;81.62;99015.13;4885989;29;20081;-61
2022/09/08 04:10:22;;;;;;;6.55;4.47;;;;;;;8.18;81.33;99013.28;4888691;29;20467;-63
2022/09/08 04:12:48;;;;;;;8.32;4.65;;;;;;;8.19;81.43;99017.53;4887963;29;20053;-62
2022/09/08 04:15:14;;;;;;;6.43;4.35;;;;;;;8.18;81.18;99021.22;4890049;29;20127;-64
2022/09/08 04:17:40;;;;;;;6.95;4.57;;;;;;;8.23;80.52;99025.78;4882422;29;20549;-61
2022/09/08 04:20:06;;;;;;;5.88;3.95;;;;;;;8.29;80.90;99029.34;4879696;29;20044;-61
2022/09/08 04:22:32;;;;;;;6.00;3.88;;;;;;;8.30;79.87;99023.03;4884366;29;20055;-63
2022/09/08 04:24:58;;;;;;;6.60;3.63;;;;;;;8.34;80.24;99026.81;4896718;29;20135;-62
2022/09/08 04:27:24;;;;;;;6.88;4.18;;;;;;;8.38;79.71;99026.16;4898257;29;20192;-60
2022/09/08 04:29:50;;;;;;;5.38;3.80;;;;;;;8.32;78.62;99027.03;4897632;29;20533;-63
2022/09/08 04:32:17;;;;;;;5.63;3.83;;;;;;;8.35;79.21;99028.41;4894263;29;20148;-63
2022/09/08 04:34:42;;;;;;;5.00;4.10;;;;;;;8.41;78.77;99033.63;4897863;29;20068;-63
2022/09/08 04:37:08;;;;;;;5.63;3.63;;;;;;;8.44;78.30;99034.19;4897846;29;20142;-62
2022/09/08 04:39:34;;;;;;;5.53;4.03;;;;;;;8.37;78.40;99035.06;4897905;29;20049;-61
2022/09/08 04:42:00;;;;;;;5.07;3.63;;;;;;;8.46;78.38;99032.13;4880747;29;20203;-63
2022/09/08 04:44:26;;;;;;;6.57;3.83;;;;;;;8.41;77.91;99038.91;4896778;29;20059;-63
2022/09/08 04:46:51;;;;;;;7.10;3.88;;;;;;;8.53;77.53;99038.91;4897392;29;20480;-62
2022/09/08 04:49:18;;;;;;;5.80;4.18;;;;;;;8.52;77.62;99033.81;4897926;29;20128;-62
2022/09/08 04:51:44;;;;;;;5.60;3.88;;;;;;;8.57;77.88;99041.88;4880042;29;20051;-61
2022/09/08 04:54:10;;;;;;;5.00;3.47;;;;;;;8.69;76.56;99040.00;4876827;29;20041;-64
2022/09/08 04:56:36;;;;;;;5.57;3.90;;;;;;;8.71;77.50;99037.94;4879228;29;20730;-62
2022/09/08 04:59:02;;;;;;;6.43;3.72;;;;;;;8.85;77.75;99039.28;4878874;29;20096;-63
2022/09/08 05:01:32;;;;;;;6.18;4.00;;;;;;;8.90;75.78;99041.19;4878452;29;20455;-62
2022/09/08 05:04:00;;;;;;;6.40;4.40;;;;;;;8.89;77.13;99038.81;4878508;29;20426;-61
2022/09/08 05:06:27;;;;;;;6.18;4.25;;;;;;;8.82;77.55;99037.09;4888183;29;20317;-63
2022/09/08 05:08:55;;;;;;;5.38;3.70;;;;;;;8.92;76.95;99051.56;4897605;29;20044;-63
2022/09/08 05:11:23;;;;;;;5.45;4.30;;;;;;;8.90;76.33;99041.19;4896090;29;20060;-64
2022/09/08 05:13:49;;;;;;;5.35;4.13;;;;;;;8.87;77.24;99045.13;4897388;29;20044;-66
2022/09/08 05:16:17;;;;;;;5.57;4.20;;;;;;;8.84;77.24;99058.00;4897269;29;20072;-63
2022/09/08 05:18:47;;;;;;;7.03;4.18;;;;;;;8.74;78.04;99058.59;4896788;29;20055;-59
2022/09/08 05:21:12;;;;;;;6.13;4.47;;;;;;;8.74;78.96;99058.59;4897310;29;20486;-63
2022/09/08 05:23:38;;;;;;;6.97;4.40;;;;;;;8.64;78.77;99064.47;4897490;29;20152;-62
2022/09/08 05:26:06;;;;;;;5.65;4.22;;;;;;;8.63;78.60;99056.78;4884351;29;20541;-61
2022/09/08 05:28:37;;;;;;;5.70;4.10;;;;;;;8.62;78.58;99071.03;4877894;29;20103;-62
2022/09/08 05:31:05;;;;;;;5.30;3.80;;;;;;;8.59;77.88;99071.50;4878551;29;20193;-62
2022/09/08 05:33:31;;;;;;;4.57;3.63;;;;;;;8.60;78.23;99065.19;4890819;29;20036;-63
2022/09/08 05:35:57;;;;;;;4.97;3.65;;;;;;;8.70;78.11;99068.03;4897099;29;20052;-62
2022/09/08 05:38:23;;;;;;;4.13;3.30;;;;;;;8.59;76.86;99068.88;4880023;29;20049;-62
2022/09/08 05:40:49;;;;;;;6.18;3.58;;;;;;;8.57;77.57;99076.22;4896679;29;20056;-61
2022/09/08 05:43:15;;;;;;;5.55;3.80;;;;;;;8.59;77.93;99084.72;4895250;29;20048;-61
2022/09/08 05:45:49;;;;;;;5.53;3.85;;;;;;;8.54;77.91;99092.53;4879757;29;20429;-61
2022/09/08 05:48:15;;;;;;;7.18;3.83;;;;;;;8.56;77.48;99083.34;4896766;29;20055;-62
2022/09/08 05:50:42;;;;;;;4.30;2.90;;;;;;;8.47;77.71;99089.19;4893410;29;20049;-63
2022/09/08 05:53:08;;;;;;;5.35;3.25;;;;;;;8.52;77.12;99081.38;4894005;29;20115;-62
2022/09/08 05:55:34;;;;;;;5.28;3.33;;;;;;;8.58;77.19;99096.31;4894717;29;20136;-60
2022/09/08 05:58:00;;;;;;;6.05;3.20;;;;;;;8.64;77.65;99093.53;4895421;29;20106;-62
2022/09/08 06:00:26;;;;;;;5.45;3.83;;;;;;;8.64;77.87;99084.81;4894636;29;20529;-62
2022/09/08 06:02:52;;;;;;;4.05;2.95;;;;;;;8.64;76.84;99092.72;4894619;29;20131;-66
2022/09/08 06:05:22;;;;;;;4.38;2.75;;;;;;;8.66;76.75;99093.31;4893240;29;20056;-60
2022/09/08 06:07:49;;;;;;;3.78;2.90;;;;;;;8.72;76.38;99086.31;4914915;29;20056;-60
2022/09/08 06:10:15;;;;;;;4.68;3.55;;;;;;;8.85;75.63;99091.31;4895674;29;20093;-62
2022/09/08 06:12:40;;;;;;;3.83;2.90;;;;;;;8.84;75.85;99093.16;4895037;29;20455;-61
2022/09/08 06:15:07;;;;;;;3.67;3.10;;;;;;;8.79;75.40;99084.31;4895617;29;20048;-60
2022/09/08 06:17:33;;;;;;;4.80;2.92;;;;;;;8.77;75.81;99102.28;4893923;29;20080;-60
2022/09/08 06:19:59;;;;;;;4.22;3.28;;;;;;;8.65;76.74;99104.94;4892680;29;20414;-62
2022/09/08 06:22:25;;;;;;;4.97;3.42;;;;;;;8.65;76.41;99094.34;4894221;29;20053;-62
2022/09/08 06:24:51;;;;;;;4.70;3.10;;;;;;;8.72;76.09;99102.94;4881740;29;20045;-63
2022/09/08 06:27:31;;;;;;;5.30;2.92;;;;;;;8.77;75.24;99103.06;4876341;29;20085;-63
2022/09/08 06:30:04;;;;;;;3.50;2.88;;;;;;;8.89;74.19;99118.91;4860725;29;20071;-62
2022/09/08 06:32:39;;;;;;;3.15;2.67;;;;;;;8.77;76.45;99115.47;4872656;29;20053;-62
2022/09/08 06:35:14;;;;;;;3.88;2.60;;;;;;;8.84;76.45;99114.31;4893443;29;20063;-63
2022/09/08 06:37:53;;;;;;;7.45;3.50;;;;;;;8.93;76.48;99114.75;4895359;29;20127;-62
2022/09/08 06:40:33;;;;;;;5.90;3.85;;;;;;;8.95;74.79;99119.81;4894863;29;20044;-62
2022/09/08 06:43:07;;;;;;;2.70;2.45;;;;;;;9.05;74.60;99127.94;4891833;29;20045;-62
2022/09/08 06:45:40;;;;;;;2.20;2.00;;;;;;;9.09;72.55;99126.47;4894295;29;20045;-62
2022/09/08 06:48:17;;;;;;;2.78;2.22;;;;;;;9.18;71.95;99124.25;4878406;29;20479;-65
2022/09/08 06:51:18;;;;;;;3.63;2.20;;;;;;;9.18;72.70;99137.47;4895589;29;20044;-61
2022/09/08 06:54:03;;;;;;;2.15;1.80;;;;;;;9.14;72.39;99139.75;4893779;29;20589;-63
2022/09/08 06:56:56;;;;;;;3.97;2.45;;;;;;;9.27;72.53;99150.09;4872561;29;20088;-61
2022/09/08 06:59:37;;;;;;;3.35;2.63;;;;;;;9.51;71.94;99150.00;4883988;29;20089;-63
2022/09/08 07:02:18;;;;;;;3.65;2.70;;;;;;;9.54;72.91;99145.03;4874017;29;20063;-62
2022/09/08 07:05:05;;;;;;;3.85;2.75;;;;;;;9.48;73.21;99155.78;4878737;29;20053;-63
2022/09/08 07:07:48;;;;;;;3.10;2.53;;;;;;;9.38;74.10;99153.72;4877181;29;20065;-63
2022/09/08 07:10:23;;;;;;;3.85;2.55;;;;;;;9.20;73.90;99157.34;4874848;29;20059;-60
2022/09/08 07:13:01;;;;;;;3.95;2.60;;;;;;;9.09;74.77;99166.13;4875735;29;20053;-62
2022/09/08 07:15:41;;;;;;;4.80;2.72;;;;;;;9.08;74.74;99162.66;4875708;29;20052;-61
2022/09/08 07:18:19;;;;;;;3.50;2.72;;;;;;;9.22;73.97;99173.78;4876484;29;20456;-61
2022/09/08 07:20:44;;;;;;;2.80;2.47;;;;;;;9.41;73.56;99169.16;4896343;29;20045;-63
2022/09/08 07:23:15;;;;;;;6.03;3.20;;;;;;;9.50;72.45;99159.81;4893061;29;20052;-62
2022/09/08 07:25:45;;;;;;;3.53;3.15;;;;;;;9.75;73.05;99167.38;4883156;29;20097;-62
2022/09/08 07:28:24;;;;;;;;;;;;;;;10.04;71.72;99170.03;4884704;29;20040;-62
2022/09/08 07:30:54;;;;;;;4.13;3.15;;;;;;;10.12;70.28;99174.13;4894008;29;20330;-61
2022/09/08 07:33:20;;;;;;;;;;;;;;;10.26;70.72;99169.31;4878940;29;20092;-60
2022/09/08 07:36:19;;;;;;;5.07;3.03;;;;;;;10.18;69.90;99170.53;4891187;29;19931;-66
2022/09/08 07:38:48;;;;;;;3.60;2.60;;;;;;;9.92;69.66;99169.28;4867046;29;20060;-64
2022/09/08 07:41:29;;;;;;;5.47;3.20;;;;;;;9.83;70.30;99176.81;4873131;29;20099;-63
2022/09/08 07:43:59;;;;;;;4.25;3.03;;;;;;;9.69;70.14;99178.13;4895217;29;20056;-63
2022/09/08 07:46:28;;;;;;;4.07;2.60;;;;;;;9.51;70.55;99182.56;4892557;29;20056;-63
2022/09/08 07:49:23;;;;;;;4.57;3.15;;;;;;;9.37;70.41;99188.34;4893049;29;20053;-63
2022/09/08 07:52:02;;;;;;;4.13;2.80;;;;;;;9.52;72.27;99184.16;4878714;29;20112;-62
2022/09/08 07:54:35;;;;;;;3.45;2.50;;;;;;;9.58;69.65;99185.06;4893141;29;20044;-63
2022/09/08 07:57:03;;;;;;;4.35;3.10;;;;;;;9.73;70.51;99189.84;4894740;29;20095;-63
2022/09/08 07:59:33;;;;;;;4.00;3.30;;;;;;;9.86;70.60;99178.97;4878879;29;20048;-64
2022/09/08 08:02:44;;;;;;;5.65;2.83;;;;;;;10.01;68.82;99189.03;4895084;29;20429;-62
2022/09/08 08:05:09;;;;;;;;;;;;;;;9.99;68.63;99181.31;4896021;29;20107;-62
2022/09/08 08:07:52;;;;;;;4.15;3.05;;;;;;;10.26;67.96;99177.25;4894863;29;20389;-62
2022/09/08 08:10:26;;;;;;;4.20;2.70;;;;;;;10.41;67.42;99185.47;4895960;29;20044;-62
2022/09/08 08:13:03;;;;;;;3.85;2.40;;;;;;;10.20;66.75;99194.91;4893157;29;20063;-61
2022/09/08 08:15:42;;;;;;;5.18;2.72;;;;;;;10.02;69.51;99202.03;4893330;29;20204;-62
2022/09/08 08:18:38;;;;;;;6.65;2.80;;;;;;;9.76;69.31;99207.91;4893093;29;20143;-62
2022/09/08 08:21:09;;;;;;;5.03;2.70;;;;;;;9.56;69.64;99200.41;4893006;29;20066;-62
2022/09/08 08:24:02;;;;;;;4.47;2.50;;;;;;;9.70;70.52;99198.25;4893358;29;20045;-66
2022/09/08 08:27:01;;;;;;;3.55;2.53;;;;;;;10.00;69.79;99200.69;4892055;29;20084;-62
2022/09/08 08:30:15;;;;;;;4.50;2.85;;;;;;;10.31;70.61;99193.28;4889559;29;20144;-62
2022/09/08 08:32:43;;;;;;;4.20;2.90;;;;;;;10.38;69.39;99193.91;4873730;29;20053;-62
2022/09/08 08:35:22;;;;;;;4.88;3.60;;;;;;;10.39;70.19;99195.53;4890460;29;20041;-64
2022/09/08 08:37:49;;;;;;;3.45;3.15;;;;;;;10.42;68.99;99195.84;4894687;29;20550;-63
2022/09/08 08:40:24;;;;;;;3.45;2.63;;;;;;;10.21;68.69;99196.53;4895602;29;20340;-62
2022/09/08 08:43:07;;;;;;;2.78;2.55;;;;;;;10.07;69.57;99201.31;4894114;29;20384;-63
2022/09/08 08:46:05;;;;;;;3.42;2.85;;;;;;;9.85;69.75;99203.81;4892702;29;20044;-63
2022/09/08 08:48:56;;;;;;;3.00;2.40;;;;;;;9.69;70.95;99208.03;4878239;29;20048;-62
2022/09/08 08:51:29;;;;;;;3.55;2.85;;;;;;;9.69;70.78;99215.19;4872710;29;20044;-61
2022/09/08 08:54:09;;;;;;;3.95;2.65;;;;;;;9.63;72.35;99216.94;4895502;29;20104;-62
2022/09/08 08:56:45;;;;;;;3.53;2.25;;;;;;;9.63;72.02;99229.38;4873911;29;20077;-61
2022/09/08 08:59:26;;;;;;;2.45;1.52;;;;;;;9.41;70.06;99232.66;4844903;29;20073;-63
2022/09/08 09:02:17;;;;;;;2.55;1.90;;;;;;;9.35;70.08;99227.47;4892833;29;20143;-63
2022/09/08 09:04:53;;;;;;;;;;;;;;;9.42;70.20;99241.38;4876281;29;20391;-62
2022/09/08 09:07:41;;;;;;;2.35;1.60;;;;;;;9.46;70.03;99245.97;4892659;29;20518;-63
2022/09/08 09:10:22;;;;;;;1.88;1.67;;;;;;;9.71;69.04;99244.88;4893138;29;20044;-62
2022/09/08 09:12:47;;;;;;;3.45;1.70;;;;;;;9.90;67.18;99242.84;4892197;29;20422;-63
2022/09/08 09:15:35;;;;;;;2.28;1.70;;;;;;;10.03;67.47;99250.53;4892988;29;20064;-62
2022/09/08 09:18:12;;;;;;;2.60;1.92;;;;;;;10.26;69.51;99251.44;4893667;29;20048;-62
2022/09/08 09:20:55;;;;;;;3.03;2.15;;;;;;;10.52;69.01;99245.56;4892196;29;20655;-63
2022/09/08 09:23:24;;;;;;;2.97;2.20;;;;;;;10.67;68.50;99247.63;4892233;29;20080;-63
2022/09/08 09:26:01;;;;;;;3.08;2.05;;;;;;;10.61;67.91;99248.59;4893090;29;20074;-62
2022/09/08 09:28:45;;;;;;;4.75;2.20;;;;;;;10.51;67.85;99256.41;4893519;29;20068;-62
2022/09/08 09:31:31;;;;;;;2.17;1.73;;;;;;;10.38;67.29;99260.97;4891601;29;20048;-61
2022/09/08 09:34:24;;;;;;;2.95;1.70;;;;;;;10.30;67.28;99261.34;4894731;29;20128;-62
2022/09/08 09:36:55;;;;;;;1.90;1.73;;;;;;;10.37;67.69;99261.19;4894329;29;20423;-64
2022/09/08 09:39:56;;;;;;;2.45;1.98;;;;;;;10.20;66.22;99264.56;4892067;29;20052;-62
2022/09/08 09:42:36;;;;;;;2.03;1.67;;;;;;;10.10;66.59;99261.75;4891613;29;20087;-61
2022/09/08 09:45:04;;;;;;;2.47;1.80;;;;;;;10.10;66.42;99260.97;4891495;29;20120;-62
2022/09/08 09:47:42;;;;;;;2.28;1.90;;;;;;;10.05;66.32;99268.81;4890202;29;20053;-62
2022/09/08 09:50:48;;;;;;;2.65;1.95;;;;;;;9.99;66.97;99270.56;4890885;29;20430;-61
2022/09/08 09:53:20;;;;;;;2.08;1.45;;;;;;;9.86;66.34;99265.56;4893873;29;20060;-62
2022/09/08 09:55:58;;;;;;;3.25;1.85;;;;;;;9.80;66.94;99269.13;4895697;29;20055;-61
2022/09/08 09:58:29;;;;;;;2.13;1.70;;;;;;;9.85;68.03;99279.81;4887683;29;20067;-62
2022/09/08 10:01:23;;;;;;;2.58;2.00;;;;;;;9.98;67.28;99287.50;4893495;29;20664;-62
2022/09/08 10:04:13;;;;;;;2.70;1.73;;;;;;;10.06;67.72;99284.47;4894733;29;20048;-63
2022/09/08 10:06:57;;;;;;;2.25;1.70;;;;;;;10.06;67.27;99291.59;4892418;29;20049;-61
2022/09/08 10:09:40;;;;;;;3.47;2.00;;;;;;;10.05;68.92;99290.00;4893377;29;20675;-61
2022/09/08 10:12:08;;;;;;;2.47;1.80;;;;;;;9.98;68.00;99300.72;4890629;29;20075;-61
2022/09/08 10:15:09;;;;;;;1.58;1.48;;;;;;;9.91;67.85;99307.97;4892965;29;20048;-61
2022/09/08 10:18:06;;;;;;;2.75;1.80;;;;;;;9.87;67.69;99289.13;4870647;29;20060;-61
2022/09/08 10:21:10;;;;;;;1.50;1.40;;;;;;;9.86;67.56;99305.25;4893920;29;20056;-61
2022/09/08 10:23:50;;;;;;;1.55;1.40;;;;;;;9.92;67.22;99309.63;4873749;29;20671;-62
2022/09/08 10:26:25;;;;;;;4.77;1.80;;;;;;;10.03;67.84;99298.19;4873106;29;20119;-62
2022/09/08 10:29:14;;;;;;;2.50;2.08;;;;;;;10.27;67.25;99303.44;4893677;29;20131;-62
2022/09/08 10:32:15;;;;;;;2.85;1.58;;;;;;;10.43;66.29;99302.63;4894320;29;20517;-62
2022/09/08 10:35:03;;;;;;;2.65;1.60;;;;;;;10.31;66.97;99299.25;4846800;29;20450;-61
2022/09/08 10:37:53;;;;;;;2.70;1.88;;;;;;;10.45;66.49;99305.88;4894148;29;20208;-62
2022/09/08 10:40:48;;;;;;;2.30;1.85;;;;;;;10.56;64.41;99302.34;4896662;29;20049;-61
2022/09/08 10:43:22;;;;;;;2.30;1.42;;;;;;;10.43;63.30;99316.69;4852105;29;20533;-62
2022/09/08 10:46:32;;;;;;;2.65;1.60;;;;;;;10.16;64.16;99326.22;4896592;29;20091;-63
2022/09/08 10:49:04;;;;;;;1.30;1.25;;;;;;;9.78;66.51;99331.03;4896899;29;20044;-62
2022/09/08 10:51:36;;;;;;;3.25;1.50;;;;;;;9.70;68.60;99335.88;4897389;29;20083;-63
2022/09/08 10:54:47;;;;;;;2.05;1.70;;;;;;;9.49;68.35;99334.66;4897976;29;20476;-64
2022/09/08 10:57:21;;;;;;;3.05;1.88;;;;;;;9.48;70.42;99351.56;4893111;29;20103;-63
2022/09/08 11:00:06;;;;;;;2.65;1.80;;;;;;;9.46;70.96;99351.00;4898134;29;20052;-63
2022/09/08 11:02:38;;;;;;;2.92;1.70;;;;;;;9.59;71.23;99342.00;4899364;29;20056;-63
2022/09/08 11:05:23;;;;;;;1.63;1.50;;;;;;;9.76;69.43;99349.03;4881980;29;20052;-63
2022/09/08 11:08:14;;;;;;;2.00;1.80;;;;;;;9.81;69.00;99344.84;4897788;29;20068;-63
2022/09/08 11:10:58;;;;;;;;;;;;;;;9.85;68.92;99348.63;4899448;29;20055;-62
2022/09/08 11:13:33;;;;;;;2.47;1.92;;;;;;;10.08;69.33;99340.63;4898197;29;19927;-61
2022/09/08 11:16:29;;;;;;;2.45;2.25;;;;;;;10.18;67.80;99332.91;4899286;29;20119;-62
2022/09/08 11:19:00;;;;;;;1.92;1.58;;;;;;;10.24;66.80;99339.09;4899373;29;20056;-61
2022/09/08 11:21:31;;;;;;;2.03;1.83;;;;;;;10.45;66.54;99327.88;4899479;29;20414;-59
2022/09/08 11:24:15;;;;;;;2.72;1.48;;;;;;;10.58;64.11;99336.56;4899560;29;20045;-62
2022/09/08 11:26:56;;;;;;;1.67;1.55;;;;;;;10.61;64.60;99339.53;4899122;29;20056;-62
2022/09/08 11:29:29;;;;;;;1.85;1.50;;;;;;;10.30;63.91;99335.53;4898461;29;20126;-60
2022/09/08 11:32:18;;;;;;;1.90;1.50;;;;;;;10.26;64.55;99339.66;4897363;29;20053;-66
2022/09/08 11:35:06;;;;;;;2.97;1.73;;;;;;;10.39;64.81;99334.13;4866848;29;20095;-61
2022/09/08 11:37:48;;;;;;;1.88;1.40;;;;;;;10.52;62.64;99332.22;4882092;29;20089;-62
2022/09/08 11:40:41;;;;;;;1.85;1.50;;;;;;;10.73;62.71;99336.81;4899329;29;20060;-61
2022/09/08 11:43:29;;;;;;;1.42;1.27;;;;;;;10.81;62.10;99348.88;4898580;29;20071;-62
2022/09/08 11:46:33;;;;;;;1.40;1.30;;;;;;;10.79;62.02;99366.88;4897111;29;20040;-62
2022/09/08 11:49:23;;;;;;;0.93;0.93;;;;;;;10.46;61.46;99379.00;4880946;29;20185;-61
2022/09/08 11:52:15;;;;;;;0.90;0.90;;;;;;;10.27;62.96;99367.81;4898840;29;20103;-62
2022/09/08 11:55:03;;;;;;;1.10;0.90;;;;;;;10.11;63.44;99373.78;4897160;29;20436;-61
2022/09/08 11:57:29;;;;;;;2.53;1.23;;;;;;;9.99;63.07;99369.31;4898914;29;20048;-61
2022/09/08 12:00:04;;;;;;;0.93;0.93;;;;;;;10.21;62.67;99368.72;4898760;29;20127;-62
2022/09/08 12:03:00;;;;;;;1.05;1.05;;;;;;;10.31;63.34;99362.84;4897403;29;20044;-61
2022/09/08 12:05:53;;;;;;;1.05;0.98;;;;;;;10.27;63.56;99359.84;4898080;29;20520;-62
2022/09/08 12:08:35;;;;;;;2.05;1.20;;;;;;;10.08;62.69;99368.97;4897938;29;20130;-61
2022/09/08 12:11:55;;;;;;;1.60;1.50;;;;;;;9.97;62.67;99352.06;4881138;29;20048;-62
2022/09/08 12:14:59;;;;;;;2.60;1.02;;;;;;;9.86;63.10;99361.66;4898377;29;20142;-61
2022/09/08 12:17:47;;;;;;;1.08;1.08;;;;;;;9.88;62.60;99362.25;4898342;29;20063;-61
2022/09/08 12:20:22;;;;;;;1.13;1.02;;;;;;;9.83;62.76;99356.03;4896879;29;20055;-62